Time;durP1;ratioP1;P1;durP2;ratioP2;P2;SDS_P1;SDS_P2;PMS_P1;PMS_P2;Temp;Humidity;BMP_temperature;BMP_pressure;BME280_temperature;BME280_humidity;BME280_pressure;Samples;Min_cycle;Max_cycle;Signal;HPM_P1;HPM_P2
2023/12/29 00:01:28;;;;;;;2.95;0.63;;;9.90;84.80;;;;;;4976424;28;20383;-74
2023/12/29 00:03:54;;;;;;;3.53;0.80;;;9.90;85.00;;;;;;4990300;28;20070;-72
2023/12/29 00:06:19;;;;;;;2.45;1.23;;;9.90;85.10;;;;;;4992177;28;20048;-72
2023/12/29 00:08:46;;;;;;;1.77;0.70;;;10.00;84.90;;;;;;4978851;28;20111;-73
2023/12/29 00:11:19;;;;;;;2.72;0.63;;;9.90;85.20;;;;;;4975914;28;20037;-72
2023/12/29 00:13:45;;;;;;;4.35;0.82;;;10.00;84.90;;;;;;4992789;28;20042;-74
2023/12/29 00:16:10;;;;;;;4.00;1.02;;;9.90;85.10;;;;;;4993474;28;20034;-72
2023/12/29 00:18:37;;;;;;;2.05;0.93;;;9.90;85.30;;;;;;4994772;28;20419;-72
2023/12/29 00:21:03;;;;;;;2.08;0.90;;;9.90;85.30;;;;;;4997774;28;20057;-72
2023/12/29 00:23:28;;;;;;;4.15;0.70;;;9.90;85.30;;;;;;4974591;28;20112;-72
2023/12/29 00:25:54;;;;;;;2.08;0.75;;;9.90;85.40;;;;;;4991797;28;20201;-73
2023/12/29 00:28:19;;;;;;;2.80;0.55;;;9.90;85.60;;;;;;4991244;28;20083;-72
2023/12/29 00:30:45;;;;;;;3.88;0.98;;;9.90;85.50;;;;;;4990742;28;20030;-72
2023/12/29 00:33:10;;;;;;;1.63;0.60;;;9.80;86.10;;;;;;4971417;28;20034;-72
2023/12/29 00:35:39;;;;;;;2.67;0.90;;;9.90;85.70;;;;;;4996596;28;20038;-73
2023/12/29 00:38:06;;;;;;;1.30;0.40;;;9.90;85.70;;;;;;4994789;28;20245;-73
2023/12/29 00:40:32;;;;;;;1.30;0.60;;;9.90;85.40;;;;;;4992172;28;20096;-72
2023/12/29 00:42:57;;;;;;;2.38;0.93;;;9.80;85.60;;;;;;4993978;28;20033;-73
2023/12/29 00:45:23;;;;;;;1.25;0.70;;;9.90;85.80;;;;;;4993188;28;20064;-73
2023/12/29 00:47:50;;;;;;;2.05;0.50;;;9.90;85.80;;;;;;4992490;28;20521;-73
2023/12/29 00:50:16;;;;;;;0.30;0.30;;;9.90;85.50;;;;;;4996945;28;20041;-72
2023/12/29 00:52:41;;;;;;;0.90;0.55;;;9.90;85.80;;;;;;4996504;28;20034;-74
2023/12/29 00:55:07;;;;;;;1.33;0.77;;;9.90;85.80;;;;;;4975434;28;20045;-73
2023/12/29 00:57:32;;;;;;;2.95;0.75;;;9.90;85.90;;;;;;4994561;28;20076;-74
2023/12/29 01:00:00;;;;;;;1.20;0.57;;;9.90;86.10;;;;;;4974408;28;20042;-74
2023/12/29 01:02:25;;;;;;;1.75;0.77;;;10.00;86.00;;;;;;4996432;28;20183;-72
2023/12/29 01:04:51;;;;;;;1.08;0.60;;;9.90;86.80;;;;;;4996216;28;20466;-73
2023/12/29 01:07:16;;;;;;;2.55;0.68;;;9.70;87.70;;;;;;4998799;28;20065;-74
2023/12/29 01:09:42;;;;;;;1.95;0.77;;;9.70;88.20;;;;;;4994570;28;20129;-72
2023/12/29 01:12:07;;;;;;;2.63;0.70;;;9.60;89.00;;;;;;4997935;28;20030;-72
2023/12/29 01:14:33;;;;;;;5.05;0.80;;;9.60;88.90;;;;;;4990773;28;20038;-73
2023/12/29 01:16:58;;;;;;;0.65;0.50;;;9.60;89.10;;;;;;4990710;28;20458;-72
2023/12/29 01:19:24;;;;;;;2.83;1.10;;;9.60;88.90;;;;;;4994975;28;20126;-73
2023/12/29 01:21:49;;;;;;;3.10;1.00;;;9.60;88.80;;;;;;4997107;28;20117;-73
2023/12/29 01:24:15;;;;;;;1.27;0.77;;;9.60;88.50;;;;;;4993488;28;20354;-74
2023/12/29 01:26:40;;;;;;;0.93;0.60;;;9.60;88.60;;;;;;4991582;28;20105;-73
2023/12/29 01:29:09;;;;;;;4.75;0.95;;;9.60;88.50;;;;;;4990634;28;20057;-73
2023/12/29 01:31:34;;;;;;;1.02;0.55;;;9.60;88.40;;;;;;4992493;28;20049;-73
2023/12/29 01:34:00;;;;;;;2.72;0.82;;;9.70;88.20;;;;;;4994285;28;20387;-73
2023/12/29 01:36:25;;;;;;;2.00;0.80;;;9.60;88.40;;;;;;4995185;28;20052;-73
2023/12/29 01:38:51;;;;;;;1.80;0.70;;;9.70;88.10;;;;;;4976855;28;20088;-73
2023/12/29 01:41:19;;;;;;;3.53;0.73;;;9.70;88.50;;;;;;4995879;28;20540;-73
2023/12/29 01:44:00;;;;;;;3.33;0.68;;;9.60;88.80;;;;;;4993267;28;20483;-73
2023/12/29 01:46:30;;;;;;;1.27;0.57;;;9.60;89.50;;;;;;4993771;28;20478;-72
2023/12/29 01:48:57;;;;;;;4.57;0.70;;;9.50;90.40;;;;;;4995858;28;20357;-73
2023/12/29 01:51:25;;;;;;;1.58;0.70;;;9.30;91.30;;;;;;4997839;28;20386;-72
2023/12/29 01:53:54;;;;;;;0.85;0.60;;;9.20;91.50;;;;;;4999506;28;20133;-72
2023/12/29 01:56:20;;;;;;;3.05;0.82;;;9.20;91.40;;;;;;4992774;28;20038;-72
2023/12/29 01:58:48;;;;;;;0.90;0.57;;;9.40;90.70;;;;;;4992406;28;20352;-72
2023/12/29 02:01:15;;;;;;;0.63;0.50;;;9.30;92.00;;;;;;4972144;28;20192;-72
2023/12/29 02:03:40;;;;;;;8.88;1.02;;;9.20;92.40;;;;;;4997199;28;20166;-72
2023/12/29 02:06:08;;;;;;;0.80;0.60;;;9.10;92.60;;;;;;4997245;28;20104;-72
2023/12/29 02:08:33;;;;;;;0.73;0.73;;;9.10;93.00;;;;;;4994449;28;20130;-72
2023/12/29 02:10:59;;;;;;;3.08;1.00;;;9.10;92.90;;;;;;4994286;28;20117;-73
2023/12/29 02:13:25;;;;;;;0.60;0.55;;;9.00;93.20;;;;;;4995761;28;20094;-72
2023/12/29 02:15:54;;;;;;;2.47;1.05;;;9.10;92.30;;;;;;4999301;28;20161;-72
2023/12/29 02:18:22;;;;;;;1.20;0.63;;;9.10;92.70;;;;;;4979201;28;20046;-73
2023/12/29 02:20:47;;;;;;;0.68;0.52;;;9.20;92.40;;;;;;5000633;28;20034;-72
2023/12/29 02:23:13;;;;;;;3.72;0.93;;;9.10;92.50;;;;;;4997605;28;20134;-73
2023/12/29 02:25:39;;;;;;;0.82;0.55;;;9.20;92.60;;;;;;4998185;28;20231;-72
2023/12/29 02:28:19;;;;;;;0.93;0.75;;;9.10;93.00;;;;;;4975773;28;20310;-73
2023/12/29 02:30:54;;;;;;;2.35;0.80;;;9.10;93.40;;;;;;4996983;28;20037;-72
2023/12/29 02:33:21;;;;;;;1.25;0.52;;;9.00;93.30;;;;;;4990252;28;20088;-73
2023/12/29 02:35:50;;;;;;;2.58;1.13;;;9.00;93.70;;;;;;4998865;28;20116;-73
2023/12/29 02:38:16;;;;;;;0.93;0.50;;;8.90;94.20;;;;;;4995774;28;20178;-72
2023/12/29 02:40:42;;;;;;;1.23;0.55;;;8.80;94.50;;;;;;5000458;28;20117;-72
2023/12/29 02:43:09;;;;;;;0.60;0.60;;;8.80;94.70;;;;;;4978970;28;20126;-73
2023/12/29 02:45:34;;;;;;;0.82;0.60;;;8.70;95.10;;;;;;4987757;28;20103;-73
2023/12/29 02:48:00;;;;;;;0.68;0.50;;;8.60;95.70;;;;;;4998222;28;20408;-73
2023/12/29 02:50:25;;;;;;;0.85;0.47;;;8.50;96.00;;;;;;4992608;28;20432;-73
2023/12/29 02:52:51;;;;;;;1.27;0.68;;;8.50;96.10;;;;;;4997477;28;20026;-74
2023/12/29 02:55:16;;;;;;;1.40;0.50;;;8.50;96.40;;;;;;4995092;28;20038;-73
2023/12/29 02:57:42;;;;;;;0.80;0.38;;;8.40;96.70;;;;;;4997061;28;20042;-73
2023/12/29 03:00:08;;;;;;;0.88;0.52;;;8.40;97.00;;;;;;4994864;28;20437;-73
2023/12/29 03:02:33;;;;;;;0.98;0.52;;;8.40;97.20;;;;;;4998688;28;20125;-74
2023/12/29 03:04:59;;;;;;;1.63;0.70;;;8.30;97.40;;;;;;5003866;28;20100;-74
2023/12/29 03:07:25;;;;;;;3.30;1.10;;;8.30;98.10;;;;;;5005444;28;20037;-73
2023/12/29 03:09:50;;;;;;;1.23;0.90;;;8.30;98.50;;;;;;4998833;28;20038;-73
2023/12/29 03:12:16;;;;;;;1.90;1.17;;;8.30;98.80;;;;;;5001160;28;20315;-73
2023/12/29 03:14:42;;;;;;;0.50;0.50;;;8.20;99.00;;;;;;4990180;28;20058;-73
2023/12/29 03:17:07;;;;;;;1.45;0.88;;;8.20;99.30;;;;;;4995105;28;20380;-72
2023/12/29 03:19:33;;;;;;;1.90;1.08;;;8.10;99.60;;;;;;5000564;28;20113;-72
2023/12/29 03:21:58;;;;;;;3.42;1.20;;;8.10;99.60;;;;;;4997254;28;20031;-74
2023/12/29 03:24:24;;;;;;;1.73;0.75;;;8.10;99.80;;;;;;4992255;28;20096;-73
2023/12/29 03:26:49;;;;;;;3.22;0.95;;;8.10;99.90;;;;;;4994383;28;20208;-74
2023/12/29 03:29:15;;;;;;;2.35;0.95;;;8.10;99.90;;;;;;4987687;28;20141;-73
2023/12/29 03:31:40;;;;;;;2.95;0.90;;;8.10;99.90;;;;;;4992172;28;20030;-73
2023/12/29 03:34:06;;;;;;;1.83;0.90;;;8.10;99.80;;;;;;4992040;28;20126;-73
2023/12/29 03:36:32;;;;;;;2.65;1.80;;;8.10;99.80;;;;;;4994941;28;20034;-73
2023/12/29 03:38:58;;;;;;;1.73;0.95;;;8.10;99.70;;;;;;4997653;28;20069;-73
2023/12/29 03:41:24;;;;;;;1.90;1.00;;;8.10;99.50;;;;;;4993270;28;20049;-73
2023/12/29 03:43:50;;;;;;;1.48;0.98;;;8.20;99.40;;;;;;4991249;28;20038;-73
2023/12/29 03:46:19;;;;;;;3.35;1.40;;;8.20;99.10;;;;;;4993098;28;20116;-74
2023/12/29 03:48:45;;;;;;;3.53;0.95;;;8.20;98.80;;;;;;5000675;28;20030;-74
2023/12/29 03:51:11;;;;;;;1.33;1.00;;;8.20;99.10;;;;;;4999311;28;20061;-73
2023/12/29 03:53:36;;;;;;;2.58;0.80;;;8.10;99.30;;;;;;4995167;28;20133;-74
2023/12/29 03:56:06;;;;;;;0.73;0.65;;;8.20;99.50;;;;;;4996184;28;20030;-73
2023/12/29 03:58:32;;;;;;;1.52;1.00;;;8.10;99.60;;;;;;5000717;28;20026;-74
2023/12/29 04:00:57;;;;;;;1.48;1.00;;;8.10;99.90;;;;;;4996304;28;20152;-73
2023/12/29 04:03:23;;;;;;;4.07;1.20;;;8.10;99.90;;;;;;4996686;28;20465;-74
2023/12/29 04:05:48;;;;;;;1.80;0.88;;;8.10;99.90;;;;;;4996973;28;20080;-74
2023/12/29 04:08:14;;;;;;;1.20;0.98;;;8.10;99.90;;;;;;4995377;28;20148;-73
2023/12/29 04:10:39;;;;;;;1.58;0.93;;;8.10;99.90;;;;;;4995059;28;20081;-74
2023/12/29 04:13:05;;;;;;;1.95;1.42;;;8.10;99.90;;;;;;4997412;28;20062;-73
2023/12/29 04:15:30;;;;;;;0.52;0.30;;;8.10;99.90;;;;;;4994551;28;20037;-73
2023/12/29 04:17:56;;;;;;;0.35;0.30;;;6.70;98.50;;;;;;4990709;28;20420;-74
2023/12/29 04:20:21;;;;;;;0.20;0.20;;;6.30;99.80;;;;;;4995578;28;20159;-73
2023/12/29 04:22:47;;;;;;;1.38;0.22;;;6.30;99.90;;;;;;4999627;28;20486;-73
2023/12/29 04:25:12;;;;;;;0.50;0.20;;;6.10;99.80;;;;;;4995128;28;20117;-73
2023/12/29 04:27:40;;;;;;;0.13;0.13;;;6.00;99.60;;;;;;5002773;28;20117;-74
2023/12/29 04:30:06;;;;;;;0.10;0.10;;;5.90;99.50;;;;;;4996555;28;20030;-73
2023/12/29 04:32:31;;;;;;;0.10;0.10;;;5.80;99.40;;;;;;4994091;28;20121;-74
2023/12/29 04:34:57;;;;;;;0.13;0.10;;;5.80;99.40;;;;;;4994954;28;20180;-73
2023/12/29 04:37:22;;;;;;;0.93;0.28;;;5.70;99.30;;;;;;5001396;28;20430;-74
2023/12/29 04:39:47;;;;;;;0.13;0.13;;;5.70;99.40;;;;;;4995974;28;20019;-74
2023/12/29 04:42:13;;;;;;;0.10;0.10;;;5.70;99.40;;;;;;5002568;28;20555;-73
2023/12/29 04:44:38;;;;;;;0.20;0.20;;;5.70;99.50;;;;;;4997353;28;20118;-74
2023/12/29 04:47:04;;;;;;;0.70;0.20;;;5.70;99.60;;;;;;4995705;28;20060;-74
2023/12/29 04:49:29;;;;;;;0.17;0.17;;;5.60;99.80;;;;;;4999718;28;20112;-74
2023/12/29 04:51:55;;;;;;;0.30;0.30;;;5.60;99.80;;;;;;5003048;28;20022;-73
2023/12/29 04:54:20;;;;;;;1.10;0.20;;;5.60;99.90;;;;;;4980676;28;20038;-74
2023/12/29 04:56:46;;;;;;;0.30;0.17;;;5.60;99.90;;;;;;4996939;28;20034;-75
2023/12/29 04:59:11;;;;;;;1.33;0.40;;;5.60;99.90;;;;;;4998351;28;20044;-74
2023/12/29 05:01:37;;;;;;;0.20;0.20;;;5.60;99.90;;;;;;4985590;28;20048;-73
2023/12/29 05:04:03;;;;;;;0.88;0.30;;;5.70;99.90;;;;;;5002080;28;20092;-73
2023/12/29 05:06:28;;;;;;;0.03;0.03;;;5.70;99.90;;;;;;4994245;28;20041;-73
2023/12/29 05:08:53;;;;;;;0.45;0.25;;;5.70;99.90;;;;;;5001851;28;20037;-73
2023/12/29 05:11:19;;;;;;;0.65;0.20;;;5.80;99.90;;;;;;4993837;28;20038;-73
2023/12/29 05:13:45;;;;;;;0.65;0.22;;;5.80;99.90;;;;;;4990781;28;20036;-73
2023/12/29 05:16:10;;;;;;;1.55;0.50;;;5.90;99.90;;;;;;4992749;28;20054;-73
2023/12/29 05:18:35;;;;;;;0.45;0.43;;;6.00;99.90;;;;;;4995848;28;20076;-74
2023/12/29 05:21:01;;;;;;;0.65;0.65;;;6.00;99.90;;;;;;4994020;28;20490;-74
2023/12/29 05:23:26;;;;;;;1.00;0.35;;;6.10;99.90;;;;;;4991161;28;20048;-74
2023/12/29 05:25:52;;;;;;;1.00;0.43;;;6.10;99.90;;;;;;4981159;28;20145;-70
2023/12/29 05:28:18;;;;;;;0.98;0.13;;;6.10;99.90;;;;;;4996916;28;20125;-70
2023/12/29 05:30:43;;;;;;;0.35;0.20;;;6.20;99.90;;;;;;4980495;28;20029;-70
2023/12/29 05:33:09;;;;;;;2.53;0.98;;;6.20;99.90;;;;;;4993304;28;20415;-72
2023/12/29 05:35:34;;;;;;;0.93;0.40;;;6.20;99.90;;;;;;5001598;28;20065;-71
2023/12/29 05:38:00;;;;;;;0.30;0.30;;;6.20;99.90;;;;;;4995886;28;20050;-71
2023/12/29 05:40:25;;;;;;;1.17;0.38;;;6.20;99.90;;;;;;5001219;28;20561;-71
2023/12/29 05:42:51;;;;;;;1.02;0.38;;;6.20;99.90;;;;;;5001166;28;20034;-71
2023/12/29 05:45:17;;;;;;;0.35;0.30;;;6.10;99.90;;;;;;4994768;28;20058;-70
2023/12/29 05:47:43;;;;;;;0.45;0.43;;;6.10;99.90;;;;;;5001211;28;20070;-71
2023/12/29 05:50:09;;;;;;;1.25;0.60;;;6.10;99.90;;;;;;4983846;28;20438;-71
2023/12/29 05:52:34;;;;;;;0.73;0.43;;;6.10;99.90;;;;;;5003485;28;20038;-71
2023/12/29 05:54:59;;;;;;;0.75;0.40;;;6.10;99.90;;;;;;4983560;28;20041;-70
2023/12/29 05:57:25;;;;;;;0.40;0.40;;;6.10;99.90;;;;;;4978026;28;20899;-70
2023/12/29 05:59:51;;;;;;;0.65;0.60;;;6.10;99.90;;;;;;5005401;28;20044;-70
2023/12/29 06:02:16;;;;;;;1.73;0.70;;;6.10;99.90;;;;;;4999884;28;20030;-70
2023/12/29 06:04:42;;;;;;;2.05;0.70;;;6.10;99.90;;;;;;5004644;28;20088;-70
2023/12/29 06:07:07;;;;;;;1.48;0.90;;;6.10;99.90;;;;;;4993042;28;20056;-70
2023/12/29 06:09:33;;;;;;;1.40;0.60;;;6.10;99.90;;;;;;4994636;28;20034;-70
2023/12/29 06:11:58;;;;;;;0.68;0.50;;;6.10;99.90;;;;;;4992288;28;20042;-70
2023/12/29 06:14:23;;;;;;;0.60;0.52;;;6.10;99.90;;;;;;4994463;28;20022;-71
2023/12/29 06:16:49;;;;;;;2.08;0.70;;;6.20;99.90;;;;;;5001759;28;20108;-71
2023/12/29 06:19:14;;;;;;;2.47;0.88;;;6.30;99.90;;;;;;5001194;28;20164;-71
2023/12/29 06:21:43;;;;;;;4.05;0.93;;;6.50;99.90;;;;;;4999077;28;20100;-71
2023/12/29 06:24:09;;;;;;;2.58;0.60;;;6.60;99.90;;;;;;4979735;28;20370;-71
2023/12/29 06:26:35;;;;;;;1.08;0.68;;;6.70;99.90;;;;;;5002844;28;20110;-71
2023/12/29 06:29:00;;;;;;;1.65;0.80;;;6.80;99.90;;;;;;4995003;28;20146;-70
2023/12/29 06:31:26;;;;;;;0.90;0.38;;;6.90;99.90;;;;;;4981940;28;20030;-71
2023/12/29 06:33:51;;;;;;;0.85;0.65;;;7.10;99.90;;;;;;5001715;28;20046;-71
2023/12/29 06:36:17;;;;;;;3.30;1.08;;;7.30;99.70;;;;;;4995400;28;20050;-70
2023/12/29 06:38:48;;;;;;;2.42;0.65;;;7.50;99.20;;;;;;4979671;28;20107;-71
2023/12/29 06:41:13;;;;;;;0.60;0.60;;;7.60;98.60;;;;;;5003787;28;20053;-71
2023/12/29 06:43:39;;;;;;;0.65;0.60;;;7.70;98.20;;;;;;4997884;28;20141;-71
2023/12/29 06:46:04;;;;;;;2.38;0.82;;;7.70;98.40;;;;;;4999313;28;20133;-71
2023/12/29 06:48:30;;;;;;;1.38;0.77;;;7.80;98.20;;;;;;5005510;28;20053;-70
2023/12/29 06:50:55;;;;;;;2.33;0.82;;;8.00;97.80;;;;;;5004633;28;20065;-71
2023/12/29 06:53:21;;;;;;;0.77;0.63;;;7.90;98.00;;;;;;5005577;28;20050;-71
2023/12/29 06:55:47;;;;;;;0.95;0.57;;;7.90;98.10;;;;;;4993901;28;20042;-72
2023/12/29 06:58:12;;;;;;;2.15;1.33;;;8.00;98.10;;;;;;5001156;28;20034;-71
2023/12/29 07:00:38;;;;;;;3.97;1.35;;;8.10;97.30;;;;;;4991604;28;20040;-70
2023/12/29 07:03:03;;;;;;;1.60;0.85;;;8.10;97.00;;;;;;5000496;28;20108;-70
2023/12/29 07:05:29;;;;;;;1.60;0.80;;;8.10;96.90;;;;;;4996029;28;20042;-71
2023/12/29 07:07:54;;;;;;;0.50;0.43;;;8.00;96.90;;;;;;5002874;28;20234;-71
2023/12/29 07:10:20;;;;;;;1.95;0.85;;;8.00;96.80;;;;;;5002979;28;20076;-71
2023/12/29 07:12:45;;;;;;;3.65;1.10;;;8.10;96.00;;;;;;4997299;28;20113;-72
2023/12/29 07:15:13;;;;;;;1.80;0.90;;;8.10;95.70;;;;;;5002659;28;20061;-72
2023/12/29 07:17:39;;;;;;;4.53;1.02;;;8.00;96.00;;;;;;4987917;28;20084;-72
2023/12/29 07:20:06;;;;;;;2.58;0.57;;;8.00;96.10;;;;;;5005953;28;20026;-72
2023/12/29 07:22:32;;;;;;;3.28;1.00;;;7.90;96.10;;;;;;4998861;28;20427;-72
2023/12/29 07:24:58;;;;;;;3.13;1.23;;;8.00;95.90;;;;;;4994568;28;20351;-72
2023/12/29 07:27:23;;;;;;;0.63;0.63;;;8.00;95.60;;;;;;4999029;28;20030;-73
2023/12/29 07:29:49;;;;;;;2.10;0.93;;;8.10;95.40;;;;;;4994717;28;20450;-72
2023/12/29 07:32:14;;;;;;;2.10;0.77;;;8.10;94.90;;;;;;5004511;28;20403;-72
2023/12/29 07:34:40;;;;;;;2.20;1.00;;;8.00;95.20;;;;;;5006668;28;20042;-73
2023/12/29 07:37:06;;;;;;;1.83;0.80;;;8.00;95.30;;;;;;4992910;28;20148;-72
2023/12/29 07:39:31;;;;;;;1.40;1.02;;;8.10;94.60;;;;;;4994922;28;20050;-72
2023/12/29 07:41:57;;;;;;;1.23;0.85;;;8.00;95.10;;;;;;4992322;28;20466;-72
2023/12/29 07:44:22;;;;;;;1.58;0.75;;;8.10;94.60;;;;;;4999864;28;20053;-72
2023/12/29 07:46:48;;;;;;;3.10;0.52;;;8.00;94.70;;;;;;4997823;28;20073;-73
2023/12/29 07:49:14;;;;;;;1.42;0.90;;;8.00;94.50;;;;;;5004458;28;20041;-72
2023/12/29 07:51:41;;;;;;;1.08;0.40;;;8.00;94.70;;;;;;5000788;28;20101;-71
2023/12/29 07:54:07;;;;;;;3.38;0.60;;;8.10;94.10;;;;;;4999375;28;20370;-71
2023/12/29 07:56:33;;;;;;;1.85;1.20;;;8.10;93.60;;;;;;4995369;28;20033;-72
2023/12/29 07:58:58;;;;;;;2.13;0.70;;;8.00;94.00;;;;;;4975433;28;20121;-72
2023/12/29 08:01:24;;;;;;;3.20;0.73;;;7.90;94.50;;;;;;4996292;28;20470;-72
2023/12/29 08:03:49;;;;;;;0.60;0.43;;;7.90;94.50;;;;;;4975912;28;20131;-72
2023/12/29 08:06:15;;;;;;;2.83;0.80;;;8.00;94.40;;;;;;5002955;28;20033;-72
2023/12/29 08:08:41;;;;;;;2.20;0.68;;;8.10;94.30;;;;;;4996240;28;20033;-72
2023/12/29 08:11:12;;;;;;;1.17;0.90;;;8.00;94.50;;;;;;4999371;28;20479;-72
2023/12/29 08:13:37;;;;;;;2.65;0.70;;;8.20;94.00;;;;;;4980866;28;20073;-72
2023/12/29 08:16:03;;;;;;;2.28;1.05;;;8.20;93.90;;;;;;4999261;28;20453;-72
2023/12/29 08:18:29;;;;;;;1.63;0.93;;;8.30;93.80;;;;;;4991963;28;20541;-72
2023/12/29 08:20:54;;;;;;;3.30;0.82;;;8.10;94.60;;;;;;4996141;28;20058;-72
2023/12/29 08:23:20;;;;;;;1.48;0.82;;;8.00;94.90;;;;;;4989209;28;20371;-72
2023/12/29 08:25:46;;;;;;;2.90;1.05;;;8.10;94.50;;;;;;4975432;28;20037;-71
2023/12/29 08:28:11;;;;;;;3.10;0.98;;;8.00;94.80;;;;;;4999921;28;20033;-72
2023/12/29 08:30:38;;;;;;;4.00;0.88;;;8.10;94.40;;;;;;4993861;28;20033;-72
2023/12/29 08:33:04;;;;;;;6.00;1.38;;;8.20;94.20;;;;;;4990081;28;20455;-71
2023/12/29 08:35:29;;;;;;;1.65;0.75;;;8.10;94.50;;;;;;4997870;28;20124;-74
2023/12/29 08:37:55;;;;;;;0.82;0.68;;;8.10;94.70;;;;;;4991730;28;20030;-72
2023/12/29 08:40:20;;;;;;;3.10;0.88;;;8.10;94.70;;;;;;4984638;28;20081;-72
2023/12/29 08:42:46;;;;;;;1.65;0.82;;;8.10;94.60;;;;;;4976535;28;20539;-72
2023/12/29 08:45:11;;;;;;;2.33;1.17;;;8.00;94.60;;;;;;4995162;28;20121;-72
2023/12/29 08:47:36;;;;;;;2.30;0.57;;;7.90;95.00;;;;;;5003418;28;20045;-72
2023/12/29 08:50:02;;;;;;;2.00;0.95;;;8.10;94.20;;;;;;5004416;28;20120;-72
2023/12/29 08:52:28;;;;;;;0.80;0.80;;;8.10;94.40;;;;;;4993389;28;20069;-72
2023/12/29 08:54:53;;;;;;;1.13;0.73;;;8.10;94.00;;;;;;4994424;28;20038;-71
2023/12/29 08:57:19;;;;;;;4.38;1.23;;;8.10;94.30;;;;;;5005206;28;20033;-72
2023/12/29 08:59:44;;;;;;;2.15;0.93;;;8.20;93.70;;;;;;5001792;28;20038;-71
2023/12/29 09:02:09;;;;;;;1.63;0.70;;;8.20;93.80;;;;;;4996341;28;20121;-72
2023/12/29 09:04:35;;;;;;;1.10;0.70;;;8.40;93.10;;;;;;5002686;28;20033;-72
2023/12/29 09:07:00;;;;;;;1.83;0.70;;;8.40;93.20;;;;;;5003318;28;20439;-72
2023/12/29 09:09:26;;;;;;;3.90;1.00;;;8.40;93.30;;;;;;5000377;28;20095;-72
2023/12/29 09:11:52;;;;;;;3.20;0.95;;;8.50;93.30;;;;;;5003381;28;20377;-72
2023/12/29 09:14:17;;;;;;;1.63;0.50;;;8.40;93.70;;;;;;5000026;28;20036;-71
2023/12/29 09:16:46;;;;;;;3.65;0.90;;;8.50;94.00;;;;;;5002814;28;20050;-71
2023/12/29 09:19:12;;;;;;;1.88;1.02;;;8.40;94.60;;;;;;4988385;28;20435;-71
2023/12/29 09:21:37;;;;;;;3.33;1.73;;;8.30;95.30;;;;;;4998636;28;20041;-70
2023/12/29 09:24:04;;;;;;;1.63;0.68;;;8.30;95.30;;;;;;5001210;28;20062;-69
2023/12/29 09:26:30;;;;;;;2.10;1.15;;;8.40;95.60;;;;;;5001286;28;20034;-70
2023/12/29 09:28:55;;;;;;;4.00;0.63;;;8.30;95.70;;;;;;4976188;28;20097;-70
2023/12/29 09:31:21;;;;;;;4.15;1.05;;;8.20;96.30;;;;;;5002803;28;20030;-70
2023/12/29 09:33:46;;;;;;;1.42;0.68;;;8.20;96.50;;;;;;5005441;28;20152;-70
2023/12/29 09:36:11;;;;;;;1.42;1.00;;;8.10;96.50;;;;;;5004876;28;20060;-69
2023/12/29 09:38:37;;;;;;;3.30;0.45;;;8.30;95.10;;;;;;5007375;28;20042;-70
2023/12/29 09:41:11;;;;;;;4.97;1.38;;;8.20;95.00;;;;;;5001004;28;20145;-70
2023/12/29 09:43:38;;;;;;;1.90;0.40;;;8.20;95.00;;;;;;5000684;28;20112;-70
2023/12/29 09:46:05;;;;;;;4.43;0.80;;;8.10;95.20;;;;;;4998009;28;20185;-70
2023/12/29 09:48:33;;;;;;;0.90;0.63;;;8.10;94.80;;;;;;4996246;28;20053;-70
2023/12/29 09:50:59;;;;;;;2.35;0.73;;;8.10;94.50;;;;;;5004142;28;20042;-70
2023/12/29 09:53:25;;;;;;;3.03;1.15;;;8.10;94.70;;;;;;5007444;28;20367;-70
2023/12/29 09:55:52;;;;;;;3.90;0.95;;;8.10;93.80;;;;;;5002837;28;20030;-70
2023/12/29 09:58:21;;;;;;;2.42;0.80;;;8.20;92.80;;;;;;4993483;28;20371;-71
2023/12/29 10:00:48;;;;;;;3.00;0.88;;;8.20;92.50;;;;;;5004819;28;20025;-70
2023/12/29 10:03:14;;;;;;;2.13;0.30;;;8.20;92.90;;;;;;4989038;28;20044;-70
2023/12/29 10:05:39;;;;;;;2.50;0.52;;;8.20;92.90;;;;;;5008959;28;20026;-70
2023/12/29 10:08:08;;;;;;;1.83;0.57;;;8.30;92.10;;;;;;5009944;28;20101;-70
2023/12/29 10:10:34;;;;;;;1.00;0.30;;;8.30;92.20;;;;;;5000711;28;20026;-70
2023/12/29 10:13:01;;;;;;;1.38;0.52;;;8.20;92.70;;;;;;4981111;28;20058;-70
2023/12/29 10:15:42;;;;;;;0.63;0.50;;;8.10;93.10;;;;;;5002913;28;20034;-70
2023/12/29 10:18:21;;;;;;;0.65;0.50;;;8.10;93.70;;;;;;4995784;28;20350;-70
2023/12/29 10:21:11;;;;;;;3.05;0.60;;;8.00;94.10;;;;;;4978270;28;20045;-70
2023/12/29 10:23:50;;;;;;;1.70;0.80;;;7.90;94.10;;;;;;4987559;28;20030;-70
2023/12/29 10:26:16;;;;;;;1.27;0.50;;;7.80;94.50;;;;;;5010674;28;20025;-70
2023/12/29 10:28:43;;;;;;;1.40;0.38;;;7.80;94.80;;;;;;4996962;28;20102;-70
2023/12/29 10:31:14;;;;;;;2.40;0.47;;;7.80;94.50;;;;;;5004146;28;20106;-70
2023/12/29 10:33:39;;;;;;;;;;;7.80;94.20;;;;;;5005079;28;20034;-70
2023/12/29 10:36:07;;;;;;;3.30;0.47;;;7.90;94.30;;;;;;5003428;28;19927;-70
2023/12/29 10:38:33;;;;;;;0.28;0.28;;;7.80;94.30;;;;;;4988894;28;20062;-70
2023/12/29 10:41:16;;;;;;;0.30;0.28;;;7.80;94.80;;;;;;5008023;28;20484;-70
2023/12/29 10:43:44;;;;;;;0.43;0.10;;;7.90;94.50;;;;;;4998501;28;20045;-70
2023/12/29 10:46:11;;;;;;;0.52;0.40;;;7.80;94.90;;;;;;5008135;28;20072;-71
2023/12/29 10:48:37;;;;;;;1.95;0.45;;;7.90;94.70;;;;;;4999022;28;20023;-70
2023/12/29 10:51:04;;;;;;;1.25;0.73;;;7.80;94.80;;;;;;5002319;28;20026;-70
2023/12/29 10:53:33;;;;;;;2.83;0.30;;;7.90;95.20;;;;;;4979963;28;20125;-70
2023/12/29 10:55:59;;;;;;;0.38;0.38;;;7.90;95.00;;;;;;4995280;28;20060;-70
2023/12/29 10:58:29;;;;;;;1.05;0.20;;;7.90;95.10;;;;;;4994700;28;20148;-71
2023/12/29 11:00:56;;;;;;;1.17;0.55;;;7.80;95.20;;;;;;5007419;28;20101;-70
2023/12/29 11:03:22;;;;;;;0.70;0.40;;;8.00;95.10;;;;;;5000635;28;20037;-70
2023/12/29 11:05:48;;;;;;;1.55;0.68;;;8.00;95.30;;;;;;5002353;28;20033;-70
2023/12/29 11:08:17;;;;;;;1.02;0.50;;;8.00;95.70;;;;;;5007345;28;20420;-70
2023/12/29 11:10:44;;;;;;;2.08;0.60;;;8.00;95.80;;;;;;4998206;28;20080;-70
2023/12/29 11:13:13;;;;;;;0.30;0.30;;;8.00;95.80;;;;;;5000793;28;20033;-69
2023/12/29 11:15:44;;;;;;;3.40;0.77;;;8.00;96.10;;;;;;4988469;28;20453;-70
2023/12/29 11:18:13;;;;;;;1.90;0.50;;;8.00;95.90;;;;;;5005359;28;20415;-70
2023/12/29 11:20:40;;;;;;;2.20;0.70;;;7.90;95.70;;;;;;5005272;28;20021;-70
2023/12/29 11:23:08;;;;;;;2.38;0.73;;;7.90;94.90;;;;;;5006144;28;20042;-70
2023/12/29 11:25:34;;;;;;;0.52;0.52;;;7.80;95.20;;;;;;5006391;28;20026;-69
2023/12/29 11:28:00;;;;;;;3.28;0.57;;;7.80;95.80;;;;;;4982031;28;20030;-70
2023/12/29 11:30:26;;;;;;;0.90;0.43;;;7.70;95.50;;;;;;4990412;28;20357;-69
2023/12/29 11:33:00;;;;;;;0.68;0.30;;;7.70;95.40;;;;;;5001841;28;20482;-69
2023/12/29 11:35:51;;;;;;;0.22;0.20;;;7.70;94.90;;;;;;4983873;28;20030;-70
2023/12/29 11:38:43;;;;;;;1.88;0.40;;;7.70;94.90;;;;;;4987111;28;20057;-70
2023/12/29 11:41:21;;;;;;;0.43;0.30;;;7.60;95.40;;;;;;4996184;28;20456;-70
2023/12/29 11:43:59;;;;;;;1.88;0.43;;;7.50;95.60;;;;;;4998467;28;20073;-70
2023/12/29 11:46:35;;;;;;;2.33;0.52;;;7.50;95.60;;;;;;4997817;28;20465;-70
2023/12/29 11:49:04;;;;;;;0.52;0.30;;;7.50;95.50;;;;;;5002469;28;20443;-70
2023/12/29 11:51:31;;;;;;;0.60;0.17;;;7.50;95.70;;;;;;5004239;28;20064;-70
2023/12/29 11:53:56;;;;;;;1.08;0.30;;;7.50;95.70;;;;;;5007240;28;20030;-70
2023/12/29 11:56:22;;;;;;;2.72;0.80;;;7.50;95.70;;;;;;5001001;28;20080;-70
2023/12/29 11:58:47;;;;;;;0.57;0.30;;;7.60;95.40;;;;;;4999219;28;20113;-70
2023/12/29 12:01:13;;;;;;;0.30;0.30;;;7.60;95.30;;;;;;4977022;28;20300;-70
2023/12/29 12:03:39;;;;;;;0.60;0.32;;;7.60;95.60;;;;;;4997040;28;20030;-70
2023/12/29 12:06:04;;;;;;;3.17;0.50;;;7.70;95.40;;;;;;4976892;28;20066;-70
2023/12/29 12:08:35;;;;;;;0.30;0.30;;;7.60;95.50;;;;;;4974964;28;20454;-70
2023/12/29 12:11:28;;;;;;;0.50;0.40;;;7.60;95.60;;;;;;4993686;28;20125;-70
2023/12/29 12:13:54;;;;;;;0.32;0.32;;;7.60;95.70;;;;;;4972729;28;20133;-69
2023/12/29 12:16:49;;;;;;;0.52;0.32;;;7.60;95.60;;;;;;4976119;28;20026;-72
2023/12/29 12:19:16;;;;;;;2.47;0.73;;;7.50;95.90;;;;;;4979299;28;20041;-70
2023/12/29 12:21:47;;;;;;;0.77;0.40;;;7.50;96.20;;;;;;4997540;28;20455;-70
2023/12/29 12:24:13;;;;;;;;;;;7.50;96.20;;;;;;4990424;28;20407;-70
2023/12/29 12:26:40;;;;;;;2.40;0.40;;;7.50;96.20;;;;;;4994859;28;19928;-70
2023/12/29 12:29:07;;;;;;;2.17;0.40;;;7.50;96.30;;;;;;4998866;28;20034;-71
2023/12/29 12:31:32;;;;;;;0.20;0.20;;;7.40;96.70;;;;;;4995889;28;20034;-70
2023/12/29 12:34:02;;;;;;;0.57;0.52;;;7.50;96.70;;;;;;4994231;28;20069;-71
2023/12/29 12:36:28;;;;;;;0.65;0.40;;;7.50;96.50;;;;;;4997631;28;20157;-70
2023/12/29 12:38:55;;;;;;;0.60;0.57;;;7.50;96.50;;;;;;4997559;28;20120;-70
2023/12/29 12:41:22;;;;;;;0.52;0.50;;;7.50;96.50;;;;;;4995344;28;20122;-70
2023/12/29 12:44:08;;;;;;;0.85;0.70;;;7.40;96.60;;;;;;4989600;28;20466;-70
2023/12/29 12:46:37;;;;;;;1.15;0.32;;;7.50;96.50;;;;;;5001175;28;20033;-70
2023/12/29 12:49:04;;;;;;;1.05;0.50;;;7.60;96.40;;;;;;4995182;28;20470;-70
2023/12/29 12:51:32;;;;;;;0.68;0.45;;;7.70;95.80;;;;;;4989170;28;20041;-70
2023/12/29 12:53:57;;;;;;;0.57;0.40;;;7.70;95.80;;;;;;4998167;28;20066;-70
2023/12/29 12:56:27;;;;;;;2.35;0.47;;;7.70;95.70;;;;;;5002200;28;20462;-71